sensor_id;sensor_type;location;lat;lon;timestamp;pressure;altitude;pressure_sealevel;temperature;humidity
31183;BME280;17813;0.000;0.000;2024-02-15T00:01:43;99697.56;;;9.77;94.48
31183;BME280;17813;0.000;0.000;2024-02-15T00:04:10;99693.97;;;9.78;94.53
31183;BME280;17813;0.000;0.000;2024-02-15T00:06:38;99694.84;;;9.78;95.14
31183;BME280;17813;0.000;0.000;2024-02-15T00:09:05;99688.94;;;9.73;95.17
31183;BME280;17813;0.000;0.000;2024-02-15T00:11:34;99685.59;;;9.70;95.25
31183;BME280;17813;0.000;0.000;2024-02-15T00:14:02;99692.28;;;9.77;95.27
31183;BME280;17813;0.000;0.000;2024-02-15T00:16:30;99686.22;;;9.75;95.77
31183;BME280;17813;0.000;0.000;2024-02-15T00:18:57;99687.16;;;9.74;95.20
31183;BME280;17813;0.000;0.000;2024-02-15T00:21:25;99692.19;;;9.78;95.11
31183;BME280;17813;0.000;0.000;2024-02-15T00:23:52;99684.25;;;9.78;95.13
31183;BME280;17813;0.000;0.000;2024-02-15T00:26:22;99695.00;;;9.75;95.98
31183;BME280;17813;0.000;0.000;2024-02-15T00:28:49;99690.56;;;9.76;95.32
31183;BME280;17813;0.000;0.000;2024-02-15T00:31:15;99694.25;;;9.73;95.63
31183;BME280;17813;0.000;0.000;2024-02-15T00:33:43;99697.56;;;9.77;95.30
31183;BME280;17813;0.000;0.000;2024-02-15T00:36:10;99702.78;;;9.78;95.47
31183;BME280;17813;0.000;0.000;2024-02-15T00:38:40;99701.00;;;9.79;95.40
31183;BME280;17813;0.000;0.000;2024-02-15T00:41:09;99712.44;;;9.79;95.39
31183;BME280;17813;0.000;0.000;2024-02-15T00:43:37;99701.84;;;9.79;94.91
31183;BME280;17813;0.000;0.000;2024-02-15T00:46:04;99706.22;;;9.80;95.48
31183;BME280;17813;0.000;0.000;2024-02-15T00:48:30;99714.94;;;9.82;95.10
31183;BME280;17813;0.000;0.000;2024-02-15T00:50:59;99706.97;;;9.82;95.34
31183;BME280;17813;0.000;0.000;2024-02-15T00:53:26;99699.81;;;9.84;95.17
31183;BME280;17813;0.000;0.000;2024-02-15T00:55:58;99709.63;;;9.82;94.70
31183;BME280;17813;0.000;0.000;2024-02-15T00:58:26;99714.75;;;9.85;94.72
31183;BME280;17813;0.000;0.000;2024-02-15T01:00:55;99706.72;;;9.87;94.97
31183;BME280;17813;0.000;0.000;2024-02-15T01:03:23;99706.72;;;9.87;94.55
31183;BME280;17813;0.000;0.000;2024-02-15T01:05:52;99710.16;;;9.89;94.48
31183;BME280;17813;0.000;0.000;2024-02-15T01:08:20;99713.56;;;9.91;94.63
31183;BME280;17813;0.000;0.000;2024-02-15T01:10:49;99712.63;;;9.92;94.43
31183;BME280;17813;0.000;0.000;2024-02-15T01:13:19;99706.28;;;9.94;94.29
31183;BME280;17813;0.000;0.000;2024-02-15T01:15:45;99706.13;;;9.97;94.22
31183;BME280;17813;0.000;0.000;2024-02-15T01:18:12;99710.41;;;10.00;94.17
31183;BME280;17813;0.000;0.000;2024-02-15T01:20:40;99710.31;;;10.02;93.98
31183;BME280;17813;0.000;0.000;2024-02-15T01:23:07;99698.88;;;10.01;94.42
31183;BME280;17813;0.000;0.000;2024-02-15T01:25:37;99690.16;;;9.99;94.22
31183;BME280;17813;0.000;0.000;2024-02-15T01:28:04;99696.22;;;10.01;94.44
31183;BME280;17813;0.000;0.000;2024-02-15T01:30:31;99682.63;;;9.91;94.52
31183;BME280;17813;0.000;0.000;2024-02-15T01:32:59;99697.41;;;9.95;94.18
31183;BME280;17813;0.000;0.000;2024-02-15T01:35:27;99693.06;;;9.94;94.40
31183;BME280;17813;0.000;0.000;2024-02-15T01:37:58;99692.09;;;9.95;94.06
31183;BME280;17813;0.000;0.000;2024-02-15T01:40:25;99692.03;;;9.97;94.45
31183;BME280;17813;0.000;0.000;2024-02-15T01:42:54;99698.25;;;9.96;94.18
31183;BME280;17813;0.000;0.000;2024-02-15T01:45:23;99692.44;;;9.89;94.36
31183;BME280;17813;0.000;0.000;2024-02-15T01:47:51;99691.50;;;9.90;94.56
31183;BME280;17813;0.000;0.000;2024-02-15T01:50:19;99687.00;;;9.92;94.56
31183;BME280;17813;0.000;0.000;2024-02-15T01:52:52;99686.13;;;9.92;94.38
31183;BME280;17813;0.000;0.000;2024-02-15T01:55:21;99690.50;;;9.93;94.70
31183;BME280;17813;0.000;0.000;2024-02-15T01:57:50;99685.97;;;9.95;94.20
31183;BME280;17813;0.000;0.000;2024-02-15T02:00:18;99681.50;;;9.95;94.01
31183;BME280;17813;0.000;0.000;2024-02-15T02:02:46;99689.38;;;9.97;94.33
31183;BME280;17813;0.000;0.000;2024-02-15T02:05:17;99684.09;;;9.97;94.31
31183;BME280;17813;0.000;0.000;2024-02-15T02:07:45;99683.22;;;9.96;94.12
31183;BME280;17813;0.000;0.000;2024-02-15T02:10:12;99674.50;;;9.94;94.41
31183;BME280;17813;0.000;0.000;2024-02-15T02:12:42;99685.88;;;9.96;93.89
31183;BME280;17813;0.000;0.000;2024-02-15T02:15:10;99678.88;;;9.95;94.33
31183;BME280;17813;0.000;0.000;2024-02-15T02:17:38;99676.22;;;9.95;94.26
31183;BME280;17813;0.000;0.000;2024-02-15T02:20:07;99677.16;;;9.94;94.10
31183;BME280;17813;0.000;0.000;2024-02-15T02:22:36;99678.09;;;9.93;94.38
31183;BME280;17813;0.000;0.000;2024-02-15T02:25:08;99678.94;;;9.94;94.47
31183;BME280;17813;0.000;0.000;2024-02-15T02:27:36;99673.47;;;9.97;94.02
31183;BME280;17813;0.000;0.000;2024-02-15T02:30:14;99676.22;;;9.95;93.98
31183;BME280;17813;0.000;0.000;2024-02-15T02:32:45;99680.50;;;9.98;93.80
31183;BME280;17813;0.000;0.000;2024-02-15T02:35:15;99678.59;;;10.00;93.92
31183;BME280;17813;0.000;0.000;2024-02-15T02:37:43;99675.88;;;10.02;93.67
31183;BME280;17813;0.000;0.000;2024-02-15T02:40:11;99676.63;;;10.04;94.05
31183;BME280;17813;0.000;0.000;2024-02-15T02:42:55;99684.75;;;10.00;93.56
31183;BME280;17813;0.000;0.000;2024-02-15T02:45:29;99674.84;;;10.04;93.92
31183;BME280;17813;0.000;0.000;2024-02-15T02:47:56;99676.56;;;10.05;93.75
31183;BME280;17813;0.000;0.000;2024-02-15T02:50:24;99680.06;;;10.06;94.12
31183;BME280;17813;0.000;0.000;2024-02-15T02:52:52;99681.84;;;10.05;93.78
31183;BME280;17813;0.000;0.000;2024-02-15T02:55:19;99674.00;;;10.04;94.15
31183;BME280;17813;0.000;0.000;2024-02-15T02:57:47;99675.78;;;10.03;93.83
31183;BME280;17813;0.000;0.000;2024-02-15T03:00:15;99671.34;;;10.04;94.10
31183;BME280;17813;0.000;0.000;2024-02-15T03:02:43;99676.63;;;10.04;94.06
31183;BME280;17813;0.000;0.000;2024-02-15T03:05:11;99682.72;;;10.06;94.63
31183;BME280;17813;0.000;0.000;2024-02-15T03:07:40;99675.63;;;10.06;94.55
31183;BME280;17813;0.000;0.000;2024-02-15T03:10:09;99678.25;;;10.06;94.18
31183;BME280;17813;0.000;0.000;2024-02-15T03:12:39;99678.25;;;10.06;94.08
31183;BME280;17813;0.000;0.000;2024-02-15T03:15:07;99690.75;;;10.04;93.89
31183;BME280;17813;0.000;0.000;2024-02-15T03:17:43;99679.38;;;10.02;93.92
31183;BME280;17813;0.000;0.000;2024-02-15T03:20:13;99675.03;;;10.01;93.79
31183;BME280;17813;0.000;0.000;2024-02-15T03:23:00;99678.88;;;9.95;94.00
31183;BME280;17813;0.000;0.000;2024-02-15T03:25:28;99677.84;;;9.98;94.38
31183;BME280;17813;0.000;0.000;2024-02-15T03:27:57;99677.84;;;9.98;93.91
31183;BME280;17813;0.000;0.000;2024-02-15T03:30:26;99673.47;;;9.97;93.99
31183;BME280;17813;0.000;0.000;2024-02-15T03:32:54;99677.06;;;9.96;94.29
31183;BME280;17813;0.000;0.000;2024-02-15T03:35:26;99678.94;;;9.94;94.35
31183;BME280;17813;0.000;0.000;2024-02-15T03:37:55;99677.41;;;9.90;94.37
31183;BME280;17813;0.000;0.000;2024-02-15T03:40:23;99673.31;;;9.84;94.47
31183;BME280;17813;0.000;0.000;2024-02-15T03:42:54;99675.28;;;9.81;94.82
31183;BME280;17813;0.000;0.000;2024-02-15T03:45:20;99676.31;;;9.78;94.37
31183;BME280;17813;0.000;0.000;2024-02-15T03:47:56;99676.72;;;9.71;94.94
31183;BME280;17813;0.000;0.000;2024-02-15T03:50:24;99680.56;;;9.65;94.49
31183;BME280;17813;0.000;0.000;2024-02-15T03:52:52;99687.81;;;9.61;94.69
31183;BME280;17813;0.000;0.000;2024-02-15T03:55:19;99696.78;;;9.59;95.27
31183;BME280;17813;0.000;0.000;2024-02-15T03:57:49;99699.59;;;9.56;94.84
31183;BME280;17813;0.000;0.000;2024-02-15T04:00:17;99702.31;;;9.54;94.82
31183;BME280;17813;0.000;0.000;2024-02-15T04:02:49;99704.13;;;9.54;94.71
31183;BME280;17813;0.000;0.000;2024-02-15T04:05:16;99700.53;;;9.55;95.15
31183;BME280;17813;0.000;0.000;2024-02-15T04:07:45;99712.22;;;9.51;95.03
31183;BME280;17813;0.000;0.000;2024-02-15T04:10:13;99713.09;;;9.51;94.84
31183;BME280;17813;0.000;0.000;2024-02-15T04:12:41;99711.38;;;9.50;95.14
31183;BME280;17813;0.000;0.000;2024-02-15T04:15:13;99707.09;;;9.48;95.02
31183;BME280;17813;0.000;0.000;2024-02-15T04:17:43;99716.66;;;9.50;95.36
31183;BME280;17813;0.000;0.000;2024-02-15T04:20:11;99712.22;;;9.51;95.08
31183;BME280;17813;0.000;0.000;2024-02-15T04:22:38;99704.03;;;9.55;95.49
31183;BME280;17813;0.000;0.000;2024-02-15T04:25:07;99709.25;;;9.57;94.87
31183;BME280;17813;0.000;0.000;2024-02-15T04:27:37;99706.69;;;9.55;95.17
31183;BME280;17813;0.000;0.000;2024-02-15T04:30:04;99706.16;;;9.49;94.65
31183;BME280;17813;0.000;0.000;2024-02-15T04:32:32;99700.75;;;9.34;95.39
31183;BME280;17813;0.000;0.000;2024-02-15T04:35:01;99700.22;;;9.28;95.49
31183;BME280;17813;0.000;0.000;2024-02-15T04:37:34;99706.06;;;9.17;96.24
31183;BME280;17813;0.000;0.000;2024-02-15T04:40:03;99712.38;;;9.15;95.79
31183;BME280;17813;0.000;0.000;2024-02-15T04:42:38;99704.69;;;9.10;95.56
31183;BME280;17813;0.000;0.000;2024-02-15T04:45:14;99691.69;;;9.06;95.47
31183;BME280;17813;0.000;0.000;2024-02-15T04:47:43;99694.34;;;9.06;96.21
31183;BME280;17813;0.000;0.000;2024-02-15T04:50:12;99700.47;;;9.06;96.12
31183;BME280;17813;0.000;0.000;2024-02-15T04:52:40;99704.91;;;9.06;95.87
31183;BME280;17813;0.000;0.000;2024-02-15T04:55:14;99719.16;;;9.03;96.05
31183;BME280;17813;0.000;0.000;2024-02-15T04:57:43;99713.88;;;9.03;95.92
31183;BME280;17813;0.000;0.000;2024-02-15T05:00:12;99714.66;;;9.05;96.09
31183;BME280;17813;0.000;0.000;2024-02-15T05:02:43;99705.41;;;8.96;96.06
31183;BME280;17813;0.000;0.000;2024-02-15T05:05:11;99709.91;;;8.94;96.78
31183;BME280;17813;0.000;0.000;2024-02-15T05:07:39;99721.25;;;8.96;96.61
31183;BME280;17813;0.000;0.000;2024-02-15T05:10:07;99723.13;;;8.94;96.44
31183;BME280;17813;0.000;0.000;2024-02-15T05:12:36;99725.00;;;8.92;96.45
31183;BME280;17813;0.000;0.000;2024-02-15T05:15:04;99731.84;;;8.96;96.05
31183;BME280;17813;0.000;0.000;2024-02-15T05:17:40;99722.28;;;8.94;96.00
31183;BME280;17813;0.000;0.000;2024-02-15T05:20:08;99718.63;;;8.96;96.15
31183;BME280;17813;0.000;0.000;2024-02-15T05:22:39;99725.53;;;8.99;95.90
31183;BME280;17813;0.000;0.000;2024-02-15T05:25:08;99724.53;;;9.01;96.09
31183;BME280;17813;0.000;0.000;2024-02-15T05:27:36;99718.31;;;9.02;95.91
31183;BME280;17813;0.000;0.000;2024-02-15T05:30:05;99708.81;;;8.98;96.58
31183;BME280;17813;0.000;0.000;2024-02-15T05:32:35;99706.25;;;8.97;96.42
31183;BME280;17813;0.000;0.000;2024-02-15T05:35:12;99696.69;;;8.94;96.60
31183;BME280;17813;0.000;0.000;2024-02-15T05:37:41;99696.69;;;8.94;97.03
31183;BME280;17813;0.000;0.000;2024-02-15T05:40:10;99700.97;;;8.97;96.77
31183;BME280;17813;0.000;0.000;2024-02-15T05:42:45;99691.06;;;9.00;97.25
31183;BME280;17813;0.000;0.000;2024-02-15T05:47:53;99700.16;;;9.12;97.73
31183;BME280;17813;0.000;0.000;2024-02-15T05:50:21;99706.84;;;9.19;97.58
31183;BME280;17813;0.000;0.000;2024-02-15T05:52:48;99710.09;;;9.24;97.09
31183;BME280;17813;0.000;0.000;2024-02-15T05:55:15;99705.44;;;9.29;97.36
31183;BME280;17813;0.000;0.000;2024-02-15T05:57:47;99707.91;;;9.32;96.92
31183;BME280;17813;0.000;0.000;2024-02-15T06:00:15;99698.88;;;9.37;96.65
31183;BME280;17813;0.000;0.000;2024-02-15T06:02:46;99697.78;;;9.41;96.78
31183;BME280;17813;0.000;0.000;2024-02-15T06:05:14;99698.63;;;9.41;97.06
31183;BME280;17813;0.000;0.000;2024-02-15T06:07:44;99691.72;;;9.39;97.19
31183;BME280;17813;0.000;0.000;2024-02-15T06:10:13;99679.16;;;9.42;97.53
31183;BME280;17813;0.000;0.000;2024-02-15T06:12:43;99686.94;;;9.45;98.19
31183;BME280;17813;0.000;0.000;2024-02-15T06:15:12;99693.84;;;9.48;98.30
31183;BME280;17813;0.000;0.000;2024-02-15T06:17:43;99696.19;;;9.54;98.45
31183;BME280;17813;0.000;0.000;2024-02-15T06:20:14;99700.44;;;9.56;98.02
31183;BME280;17813;0.000;0.000;2024-02-15T06:22:43;99703.63;;;9.63;97.90
31183;BME280;17813;0.000;0.000;2024-02-15T06:25:10;99700.72;;;9.67;97.74
31183;BME280;17813;0.000;0.000;2024-02-15T06:27:39;99703.22;;;9.71;97.86
31183;BME280;17813;0.000;0.000;2024-02-15T06:30:11;99717.91;;;9.76;97.34
31183;BME280;17813;0.000;0.000;2024-02-15T06:32:58;99707.22;;;9.78;97.52
31183;BME280;17813;0.000;0.000;2024-02-15T06:35:44;99716.72;;;9.82;97.87
31183;BME280;17813;0.000;0.000;2024-02-15T06:38:31;99716.56;;;9.85;97.30
31183;BME280;17813;0.000;0.000;2024-02-15T06:41:17;99726.03;;;9.89;97.43
31183;BME280;17813;0.000;0.000;2024-02-15T06:43:47;99706.28;;;9.94;97.57
31183;BME280;17813;0.000;0.000;2024-02-15T06:46:13;99721.00;;;10.00;97.72
31183;BME280;17813;0.000;0.000;2024-02-15T06:48:45;99724.34;;;10.04;97.96
31183;BME280;17813;0.000;0.000;2024-02-15T06:51:15;99731.84;;;10.11;97.48
31183;BME280;17813;0.000;0.000;2024-02-15T06:53:44;99728.94;;;10.16;97.04
31183;BME280;17813;0.000;0.000;2024-02-15T06:56:12;99728.63;;;10.22;96.77
31183;BME280;17813;0.000;0.000;2024-02-15T06:58:42;99734.63;;;10.25;97.01
31183;BME280;17813;0.000;0.000;2024-02-15T07:01:09;99741.47;;;10.29;96.88
31183;BME280;17813;0.000;0.000;2024-02-15T07:03:40;99743.00;;;10.34;96.96
31183;BME280;17813;0.000;0.000;2024-02-15T07:06:07;99734.78;;;10.38;96.98
31183;BME280;17813;0.000;0.000;2024-02-15T07:08:36;99738.81;;;10.45;97.13
31183;BME280;17813;0.000;0.000;2024-02-15T07:11:10;99741.22;;;10.50;96.89
31183;BME280;17813;0.000;0.000;2024-02-15T07:13:45;99737.28;;;10.57;96.61
31183;BME280;17813;0.000;0.000;2024-02-15T07:16:13;99737.69;;;10.65;96.75
31183;BME280;17813;0.000;0.000;2024-02-15T07:18:43;99743.66;;;10.69;96.82
31183;BME280;17813;0.000;0.000;2024-02-15T07:21:14;99740.84;;;10.72;96.58
31183;BME280;17813;0.000;0.000;2024-02-15T07:23:45;99733.47;;;10.77;96.01
31183;BME280;17813;0.000;0.000;2024-02-15T07:26:14;99740.38;;;10.79;96.02
31183;BME280;17813;0.000;0.000;2024-02-15T07:28:42;99736.63;;;10.83;95.66
31183;BME280;17813;0.000;0.000;2024-02-15T07:31:13;99737.19;;;10.88;95.75
31183;BME280;17813;0.000;0.000;2024-02-15T07:33:42;99735.81;;;10.97;95.77
31183;BME280;17813;0.000;0.000;2024-02-15T07:36:12;99737.22;;;11.03;95.80
31183;BME280;17813;0.000;0.000;2024-02-15T07:38:39;99733.19;;;11.11;95.46
31183;BME280;17813;0.000;0.000;2024-02-15T07:41:08;99735.19;;;11.22;95.02
31183;BME280;17813;0.000;0.000;2024-02-15T07:43:36;99726.56;;;11.33;94.91
31183;BME280;17813;0.000;0.000;2024-02-15T07:46:06;99723.84;;;11.48;94.66
31183;BME280;17813;0.000;0.000;2024-02-15T07:48:35;99728.56;;;11.72;94.62
31183;BME280;17813;0.000;0.000;2024-02-15T07:51:04;99726.22;;;11.96;93.90
31183;BME280;17813;0.000;0.000;2024-02-15T07:53:39;99727.25;;;12.07;92.73
31183;BME280;17813;0.000;0.000;2024-02-15T07:56:10;99733.13;;;12.12;92.64
31183;BME280;17813;0.000;0.000;2024-02-15T07:58:50;99725.31;;;12.23;92.52
31183;BME280;17813;0.000;0.000;2024-02-15T08:01:21;99730.22;;;12.30;91.55
31183;BME280;17813;0.000;0.000;2024-02-15T08:03:49;99725.34;;;12.36;91.11
31183;BME280;17813;0.000;0.000;2024-02-15T08:06:20;99729.91;;;12.34;90.71
31183;BME280;17813;0.000;0.000;2024-02-15T08:08:49;99731.63;;;12.35;90.77
31183;BME280;17813;0.000;0.000;2024-02-15T08:11:20;99732.13;;;12.28;90.60
31183;BME280;17813;0.000;0.000;2024-02-15T08:13:52;99731.47;;;12.24;90.50
31183;BME280;17813;0.000;0.000;2024-02-15T08:16:22;99719.88;;;12.25;90.81
31183;BME280;17813;0.000;0.000;2024-02-15T08:18:50;99730.13;;;12.31;90.58
31183;BME280;17813;0.000;0.000;2024-02-15T08:21:31;99724.16;;;12.28;90.28
31183;BME280;17813;0.000;0.000;2024-02-15T08:24:08;99718.84;;;12.28;90.68
31183;BME280;17813;0.000;0.000;2024-02-15T08:26:40;99711.50;;;12.31;90.72
31183;BME280;17813;0.000;0.000;2024-02-15T08:29:08;99727.41;;;12.45;90.52
31183;BME280;17813;0.000;0.000;2024-02-15T08:31:47;99724.84;;;12.44;90.23
31183;BME280;17813;0.000;0.000;2024-02-15T08:34:16;99717.31;;;12.50;89.76
31183;BME280;17813;0.000;0.000;2024-02-15T08:36:45;99728.28;;;12.46;89.28
31183;BME280;17813;0.000;0.000;2024-02-15T08:39:14;99720.50;;;12.43;89.00
31183;BME280;17813;0.000;0.000;2024-02-15T08:41:43;99717.53;;;12.47;88.87
31183;BME280;17813;0.000;0.000;2024-02-15T08:44:10;99717.88;;;12.55;88.75
31183;BME280;17813;0.000;0.000;2024-02-15T08:46:42;99713.72;;;12.51;88.63
31183;BME280;17813;0.000;0.000;2024-02-15T08:49:10;99711.69;;;12.55;88.24
31183;BME280;17813;0.000;0.000;2024-02-15T08:51:40;99711.69;;;12.55;87.89
31183;BME280;17813;0.000;0.000;2024-02-15T08:54:08;99721.63;;;12.66;87.61
31183;BME280;17813;0.000;0.000;2024-02-15T08:56:38;99718.47;;;12.73;87.35
31183;BME280;17813;0.000;0.000;2024-02-15T08:59:05;99718.09;;;12.92;87.23
31183;BME280;17813;0.000;0.000;2024-02-15T09:01:32;99726.25;;;13.16;87.23
31183;BME280;17813;0.000;0.000;2024-02-15T09:04:02;99725.75;;;13.24;86.44
31183;BME280;17813;0.000;0.000;2024-02-15T09:06:32;99716.91;;;13.23;85.68
31183;BME280;17813;0.000;0.000;2024-02-15T09:09:00;99717.66;;;13.25;85.73
31183;BME280;17813;0.000;0.000;2024-02-15T09:11:30;99713.81;;;13.16;85.38
31183;BME280;17813;0.000;0.000;2024-02-15T09:13:58;99717.88;;;13.22;85.45
31183;BME280;17813;0.000;0.000;2024-02-15T09:16:29;99723.91;;;13.11;85.35
31183;BME280;17813;0.000;0.000;2024-02-15T09:18:59;99718.25;;;13.16;85.14
31183;BME280;17813;0.000;0.000;2024-02-15T09:21:32;99717.00;;;13.22;85.28
31183;BME280;17813;0.000;0.000;2024-02-15T09:24:03;99711.81;;;13.45;85.41
31183;BME280;17813;0.000;0.000;2024-02-15T09:26:33;99714.78;;;13.54;84.37
31183;BME280;17813;0.000;0.000;2024-02-15T09:29:01;99706.78;;;13.66;83.67
31183;BME280;17813;0.000;0.000;2024-02-15T09:31:28;99714.97;;;13.63;83.70
31183;BME280;17813;0.000;0.000;2024-02-15T09:33:56;99716.03;;;13.73;83.09
31183;BME280;17813;0.000;0.000;2024-02-15T09:36:24;99716.91;;;13.74;82.68
31183;BME280;17813;0.000;0.000;2024-02-15T09:38:52;99714.66;;;13.68;82.39
31183;BME280;17813;0.000;0.000;2024-02-15T09:41:20;99719.66;;;13.72;81.82
31183;BME280;17813;0.000;0.000;2024-02-15T09:43:48;99709.53;;;13.77;82.31
31183;BME280;17813;0.000;0.000;2024-02-15T09:46:15;99704.69;;;13.95;82.35
31183;BME280;17813;0.000;0.000;2024-02-15T09:48:49;99709.53;;;14.14;81.11
31183;BME280;17813;0.000;0.000;2024-02-15T09:51:18;99711.72;;;14.33;81.35
31183;BME280;17813;0.000;0.000;2024-02-15T09:53:48;99709.44;;;14.52;80.55
31183;BME280;17813;0.000;0.000;2024-02-15T09:56:16;99701.94;;;14.57;78.58
31183;BME280;17813;0.000;0.000;2024-02-15T09:58:43;99705.34;;;14.59;78.67
31183;BME280;17813;0.000;0.000;2024-02-15T10:01:11;99702.66;;;14.59;78.57
31183;BME280;17813;0.000;0.000;2024-02-15T10:03:40;99707.25;;;14.81;78.80
31183;BME280;17813;0.000;0.000;2024-02-15T10:06:08;99705.09;;;14.86;78.17
31183;BME280;17813;0.000;0.000;2024-02-15T10:08:36;99706.44;;;14.92;77.69
31183;BME280;17813;0.000;0.000;2024-02-15T10:11:10;99714.03;;;14.74;76.90
31183;BME280;17813;0.000;0.000;2024-02-15T10:13:37;99709.53;;;14.74;77.00
31183;BME280;17813;0.000;0.000;2024-02-15T10:16:16;99705.50;;;14.45;76.84
31183;BME280;17813;0.000;0.000;2024-02-15T10:18:43;99704.50;;;14.59;78.14
31183;BME280;17813;0.000;0.000;2024-02-15T10:21:10;99713.16;;;14.73;78.09
31183;BME280;17813;0.000;0.000;2024-02-15T10:24:04;99702.03;;;14.79;76.72
31183;BME280;17813;0.000;0.000;2024-02-15T10:26:32;99702.72;;;15.05;76.71
31183;BME280;17813;0.000;0.000;2024-02-15T10:31:37;99697.97;;;14.98;76.59
31183;BME280;17813;0.000;0.000;2024-02-15T10:34:06;99701.47;;;14.98;75.98
31183;BME280;17813;0.000;0.000;2024-02-15T10:36:34;99701.59;;;14.97;76.15
31183;BME280;17813;0.000;0.000;2024-02-15T10:39:20;99699.50;;;14.89;74.54
31183;BME280;17813;0.000;0.000;2024-02-15T10:41:54;99701.28;;;14.77;75.95
31183;BME280;17813;0.000;0.000;2024-02-15T10:44:22;99691.13;;;14.83;75.84
31183;BME280;17813;0.000;0.000;2024-02-15T10:46:52;99699.16;;;14.94;76.30
31183;BME280;17813;0.000;0.000;2024-02-15T10:49:23;99702.13;;;15.13;76.41
31183;BME280;17813;0.000;0.000;2024-02-15T10:51:59;99696.59;;;15.50;74.79
31183;BME280;17813;0.000;0.000;2024-02-15T10:57:10;99680.47;;;16.07;73.53
31183;BME280;17813;0.000;0.000;2024-02-15T10:59:56;99681.81;;;16.01;71.85
31183;BME280;17813;0.000;0.000;2024-02-15T11:02:34;99678.59;;;16.19;71.82
31183;BME280;17813;0.000;0.000;2024-02-15T11:05:09;99668.72;;;16.30;71.36
31183;BME280;17813;0.000;0.000;2024-02-15T11:07:38;99666.94;;;16.52;71.46
31183;BME280;17813;0.000;0.000;2024-02-15T11:10:10;99664.34;;;16.61;70.89
31183;BME280;17813;0.000;0.000;2024-02-15T11:12:39;99663.28;;;16.53;70.21
31183;BME280;17813;0.000;0.000;2024-02-15T11:15:10;99659.84;;;16.62;70.21
31183;BME280;17813;0.000;0.000;2024-02-15T11:17:46;99657.47;;;16.48;69.51
31183;BME280;17813;0.000;0.000;2024-02-15T11:23:06;99649.69;;;16.13;69.60
31183;BME280;17813;0.000;0.000;2024-02-15T11:25:39;99656.28;;;15.97;69.22
31183;BME280;17813;0.000;0.000;2024-02-15T11:30:57;99655.69;;;15.83;69.82
31183;BME280;17813;0.000;0.000;2024-02-15T11:33:29;99659.19;;;15.94;70.14
31183;BME280;17813;0.000;0.000;2024-02-15T11:36:11;99663.84;;;15.81;69.58
31183;BME280;17813;0.000;0.000;2024-02-15T11:38:41;99654.31;;;15.99;70.18
31183;BME280;17813;0.000;0.000;2024-02-15T11:41:11;99657.84;;;16.11;69.93
31183;BME280;17813;0.000;0.000;2024-02-15T11:43:49;99660.28;;;16.03;69.32
31183;BME280;17813;0.000;0.000;2024-02-15T11:46:18;99657.50;;;15.93;68.98
31183;BME280;17813;0.000;0.000;2024-02-15T11:48:48;99660.66;;;15.98;69.81
31183;BME280;17813;0.000;0.000;2024-02-15T11:51:29;99652.66;;;15.87;68.72
31183;BME280;17813;0.000;0.000;2024-02-15T11:54:20;99655.22;;;15.78;69.02
31183;BME280;17813;0.000;0.000;2024-02-15T11:56:55;99648.28;;;15.86;69.22
31183;BME280;17813;0.000;0.000;2024-02-15T11:59:43;99648.28;;;15.86;69.13
31183;BME280;17813;0.000;0.000;2024-02-15T12:02:20;99643.72;;;16.09;69.01
31183;BME280;17813;0.000;0.000;2024-02-15T12:05:15;99649.94;;;16.10;69.08
31183;BME280;17813;0.000;0.000;2024-02-15T12:08:01;99643.56;;;16.22;68.11
31183;BME280;17813;0.000;0.000;2024-02-15T12:11:21;99640.03;;;16.21;67.62
31183;BME280;17813;0.000;0.000;2024-02-15T12:14:34;99631.84;;;16.34;68.02
31183;BME280;17813;0.000;0.000;2024-02-15T12:17:20;99629.78;;;16.37;67.97
31183;BME280;17813;0.000;0.000;2024-02-15T12:20:11;99630.38;;;16.41;67.34
31183;BME280;17813;0.000;0.000;2024-02-15T12:22:47;99618.47;;;16.34;67.12
31183;BME280;17813;0.000;0.000;2024-02-15T12:25:16;99626.25;;;16.69;67.47
31183;BME280;17813;0.000;0.000;2024-02-15T12:27:44;99619.19;;;16.89;67.04
31183;BME280;17813;0.000;0.000;2024-02-15T12:30:15;99620.75;;;16.91;66.09
31183;BME280;17813;0.000;0.000;2024-02-15T12:32:42;99620.16;;;17.09;65.52
31183;BME280;17813;0.000;0.000;2024-02-15T12:35:15;99618.09;;;16.91;65.36
31183;BME280;17813;0.000;0.000;2024-02-15T12:38:02;99610.13;;;16.80;66.51
31183;BME280;17813;0.000;0.000;2024-02-15T12:40:39;99616.47;;;16.79;66.86
31183;BME280;17813;0.000;0.000;2024-02-15T12:43:08;99613.75;;;16.58;65.88
31183;BME280;17813;0.000;0.000;2024-02-15T12:45:37;99611.75;;;16.71;66.66
31183;BME280;17813;0.000;0.000;2024-02-15T12:48:10;99609.13;;;16.81;65.86
31183;BME280;17813;0.000;0.000;2024-02-15T12:50:53;99609.13;;;16.81;66.13
31183;BME280;17813;0.000;0.000;2024-02-15T12:53:23;99606.25;;;16.94;66.25
31183;BME280;17813;0.000;0.000;2024-02-15T12:55:54;99602.47;;;16.96;65.17
31183;BME280;17813;0.000;0.000;2024-02-15T12:58:26;99605.66;;;16.90;65.43
31183;BME280;17813;0.000;0.000;2024-02-15T13:00:56;99600.44;;;17.10;65.81
31183;BME280;17813;0.000;0.000;2024-02-15T13:03:26;99597.44;;;17.33;65.32
31183;BME280;17813;0.000;0.000;2024-02-15T13:05:55;99589.63;;;17.61;64.86
31183;BME280;17813;0.000;0.000;2024-02-15T13:08:44;99581.06;;;17.67;63.76
31183;BME280;17813;0.000;0.000;2024-02-15T13:11:16;99582.00;;;17.56;62.81
31183;BME280;17813;0.000;0.000;2024-02-15T13:13:44;99579.88;;;17.50;62.42
31183;BME280;17813;0.000;0.000;2024-02-15T13:16:11;99576.50;;;17.58;62.63
31183;BME280;17813;0.000;0.000;2024-02-15T13:18:39;99577.41;;;17.68;62.73
31183;BME280;17813;0.000;0.000;2024-02-15T13:21:11;99575.50;;;17.59;62.17
31183;BME280;17813;0.000;0.000;2024-02-15T13:23:40;99570.25;;;17.48;61.70
31183;BME280;17813;0.000;0.000;2024-02-15T13:26:07;99573.03;;;17.36;61.65
31183;BME280;17813;0.000;0.000;2024-02-15T13:28:36;99572.81;;;17.19;61.02
31183;BME280;17813;0.000;0.000;2024-02-15T13:31:05;99577.25;;;16.99;62.66
31183;BME280;17813;0.000;0.000;2024-02-15T13:33:33;99582.78;;;17.07;62.62
31183;BME280;17813;0.000;0.000;2024-02-15T13:36:00;99580.16;;;17.17;62.17
31183;BME280;17813;0.000;0.000;2024-02-15T13:38:28;99575.91;;;17.14;61.47
31183;BME280;17813;0.000;0.000;2024-02-15T13:40:57;99573.84;;;17.27;61.97
31183;BME280;17813;0.000;0.000;2024-02-15T13:43:30;99566.69;;;17.38;61.30
31183;BME280;17813;0.000;0.000;2024-02-15T13:45:59;99557.56;;;17.50;61.14
31183;BME280;17813;0.000;0.000;2024-02-15T13:48:30;99562.22;;;17.48;60.83